Terminal Aerodrome Forecast
Issued by NWS

Home | Current Version | Previous Version | Text Only | Print | Product List | Glossary On
Versions: 1 2 3 4 5 6 7 8 9 10 11 12 13 14 15 16 17 18 19 20
000
FTUS43 KAPX 201900 AAA
TAFAPN
TAF AMD
KAPN 201949Z 2020/2118 12004KT P6SM OVC090
     FM202300 15004KT 6SM -RA OVC070
     FM210200 VRB03KT 6SM -RA OVC040
     FM211000 09004KT 5SM -RA OVC030=

USA.gov is the U.S. government's official web portal to all federal, state and local government web resources and services.